sensor_id;sensor_type;location;lat;lon;timestamp;pressure;altitude;pressure_sealevel;temperature;humidity
73551;BME280;61816;53.582;10.096;2023-03-25T00:02:07;54514.44;;;-144.73;92.89
73551;BME280;61816;53.582;10.096;2023-03-25T00:04:32;54465.16;;;-144.73;91.96
73551;BME280;61816;53.582;10.096;2023-03-25T00:06:59;54481.59;;;-144.73;93.50
73551;BME280;61816;53.582;10.096;2023-03-25T00:09:24;54459.00;;;-144.73;93.13
73551;BME280;61816;53.582;10.096;2023-03-25T00:11:50;54510.31;;;-144.73;93.72
73551;BME280;61816;53.582;10.096;2023-03-25T00:14:15;54489.81;;;-144.73;94.44
73551;BME280;61816;53.582;10.096;2023-03-25T00:16:41;54493.91;;;-144.73;94.32
73551;BME280;61816;53.582;10.096;2023-03-25T00:19:06;54461.06;;;-144.73;94.12
73551;BME280;61816;53.582;10.096;2023-03-25T00:21:33;54522.63;;;-144.73;94.42
73551;BME280;61816;53.582;10.096;2023-03-25T00:23:59;54502.13;;;-144.73;94.79
73551;BME280;61816;53.582;10.096;2023-03-25T00:26:25;54539.06;;;-144.73;94.45
73551;BME280;61816;53.582;10.096;2023-03-25T00:28:54;54456.97;;;-144.73;94.71
73551;BME280;61816;53.582;10.096;2023-03-25T00:31:20;54493.91;;;-144.73;94.23
73551;BME280;61816;53.582;10.096;2023-03-25T00:33:45;54489.81;;;-144.73;94.70
73551;BME280;61816;53.582;10.096;2023-03-25T00:36:10;54479.53;;;-144.73;94.78
73551;BME280;61816;53.582;10.096;2023-03-25T00:38:38;54567.81;;;-144.73;95.42
73551;BME280;61816;53.582;10.096;2023-03-25T00:41:19;54461.06;;;-144.73;95.11
73551;BME280;61816;53.582;10.096;2023-03-25T00:43:53;54516.47;;;-144.73;95.56
73551;BME280;61816;53.582;10.096;2023-03-25T00:46:19;54489.81;;;-144.73;95.31
73551;BME280;61816;53.582;10.096;2023-03-25T00:48:44;54604.75;;;-144.73;95.29
73551;BME280;61816;53.582;10.096;2023-03-25T00:51:10;54514.44;;;-144.73;95.51
73551;BME280;61816;53.582;10.096;2023-03-25T00:53:37;54522.63;;;-144.73;95.68
73551;BME280;61816;53.582;10.096;2023-03-25T00:56:03;54539.06;;;-144.73;95.16
73551;BME280;61816;53.582;10.096;2023-03-25T00:58:29;54524.69;;;-144.73;95.49
73551;BME280;61816;53.582;10.096;2023-03-25T01:00:54;54485.69;;;-144.73;95.57
73551;BME280;61816;53.582;10.096;2023-03-25T01:03:24;54506.22;;;-144.73;95.97
73551;BME280;61816;53.582;10.096;2023-03-25T01:05:49;54514.44;;;-144.73;95.67
73551;BME280;61816;53.582;10.096;2023-03-25T01:08:15;54493.91;;;-144.73;95.70
73551;BME280;61816;53.582;10.096;2023-03-25T01:10:41;54506.22;;;-144.73;95.54
73551;BME280;61816;53.582;10.096;2023-03-25T01:13:07;54487.75;;;-144.73;95.67
73551;BME280;61816;53.582;10.096;2023-03-25T01:15:32;54498.00;;;-144.73;95.72
73551;BME280;61816;53.582;10.096;2023-03-25T01:17:58;54539.06;;;-144.73;95.34
73551;BME280;61816;53.582;10.096;2023-03-25T01:20:23;54502.13;;;-144.73;94.99
73551;BME280;61816;53.582;10.096;2023-03-25T01:22:48;54516.47;;;-144.73;94.75
73551;BME280;61816;53.582;10.096;2023-03-25T01:25:14;54514.44;;;-144.73;94.10
73551;BME280;61816;53.582;10.096;2023-03-25T01:27:39;54498.00;;;-144.73;94.13
73551;BME280;61816;53.582;10.096;2023-03-25T01:30:05;54520.59;;;-144.73;93.92
73551;BME280;61816;53.582;10.096;2023-03-25T01:32:31;54491.84;;;-144.73;93.34
73551;BME280;61816;53.582;10.096;2023-03-25T01:34:56;54506.22;;;-144.73;93.42
73551;BME280;61816;53.582;10.096;2023-03-25T01:37:21;54504.16;;;-144.73;93.29
73551;BME280;61816;53.582;10.096;2023-03-25T01:39:49;54498.00;;;-144.73;93.02
73551;BME280;61816;53.582;10.096;2023-03-25T01:42:15;54510.31;;;-144.73;92.86
73551;BME280;61816;53.582;10.096;2023-03-25T01:47:08;54514.44;;;-144.73;92.48
73551;BME280;61816;53.582;10.096;2023-03-25T01:49:38;54514.44;;;-144.73;91.98
73551;BME280;61816;53.582;10.096;2023-03-25T01:52:06;54493.91;;;-144.73;91.32
73551;BME280;61816;53.582;10.096;2023-03-25T01:54:33;54539.06;;;-144.73;91.13
73551;BME280;61816;53.582;10.096;2023-03-25T01:56:59;54504.16;;;-144.73;91.46
73551;BME280;61816;53.582;10.096;2023-03-25T01:59:25;54495.97;;;-144.73;91.52
73551;BME280;61816;53.582;10.096;2023-03-25T02:01:52;54506.22;;;-144.73;91.93
73551;BME280;61816;53.582;10.096;2023-03-25T02:07:23;54477.47;;;-144.73;92.01
73551;BME280;61816;53.582;10.096;2023-03-25T02:09:58;54516.47;;;-144.73;92.43
73551;BME280;61816;53.582;10.096;2023-03-25T02:12:24;54493.91;;;-144.73;91.92
73551;BME280;61816;53.582;10.096;2023-03-25T02:14:50;54473.38;;;-144.73;91.86
73551;BME280;61816;53.582;10.096;2023-03-25T02:27:29;54456.97;;;-144.73;91.45
73551;BME280;61816;53.582;10.096;2023-03-25T02:35:13;54502.13;;;-144.73;90.99
73551;BME280;61816;53.582;10.096;2023-03-25T02:40:21;54522.63;;;-144.73;91.32
73551;BME280;61816;53.582;10.096;2023-03-25T02:42:51;54498.00;;;-144.73;91.00
73551;BME280;61816;53.582;10.096;2023-03-25T02:45:19;54500.06;;;-144.73;91.46
73551;BME280;61816;53.582;10.096;2023-03-25T02:47:49;54506.22;;;-144.73;91.76
73551;BME280;61816;53.582;10.096;2023-03-25T02:50:18;54526.75;;;-144.73;91.22
73551;BME280;61816;53.582;10.096;2023-03-25T02:52:46;54539.06;;;-144.73;91.33
73551;BME280;61816;53.582;10.096;2023-03-25T02:55:17;54500.06;;;-144.73;91.79
73551;BME280;61816;53.582;10.096;2023-03-25T02:57:45;54473.38;;;-144.73;91.68
73551;BME280;61816;53.582;10.096;2023-03-25T03:00:12;54526.75;;;-144.73;91.67
73551;BME280;61816;53.582;10.096;2023-03-25T03:03:00;54539.06;;;-144.73;92.03
73551;BME280;61816;53.582;10.096;2023-03-25T03:05:27;54448.75;;;-144.73;92.00
73551;BME280;61816;53.582;10.096;2023-03-25T03:10:37;54512.38;;;-144.73;91.57
73551;BME280;61816;53.582;10.096;2023-03-25T03:15:40;54518.53;;;-144.73;91.91
73551;BME280;61816;53.582;10.096;2023-03-25T03:18:13;54522.63;;;-144.73;91.92
73551;BME280;61816;53.582;10.096;2023-03-25T03:20:51;54510.31;;;-144.73;91.66
73551;BME280;61816;53.582;10.096;2023-03-25T03:23:23;54504.16;;;-144.73;91.76
73551;BME280;61816;53.582;10.096;2023-03-25T03:25:52;54514.44;;;-144.73;91.43
73551;BME280;61816;53.582;10.096;2023-03-25T03:28:22;54506.22;;;-144.73;91.58
73551;BME280;61816;53.582;10.096;2023-03-25T03:30:54;54493.91;;;-144.73;91.35
73551;BME280;61816;53.582;10.096;2023-03-25T03:33:32;54487.75;;;-144.73;91.23
73551;BME280;61816;53.582;10.096;2023-03-25T03:36:00;54514.44;;;-144.73;90.59
73551;BME280;61816;53.582;10.096;2023-03-25T03:38:32;54514.44;;;-144.73;91.07
73551;BME280;61816;53.582;10.096;2023-03-25T03:41:00;54522.63;;;-144.73;90.69
73551;BME280;61816;53.582;10.096;2023-03-25T03:43:41;54469.28;;;-144.73;91.37
73551;BME280;61816;53.582;10.096;2023-03-25T03:46:12;54512.38;;;-144.73;91.50
73551;BME280;61816;53.582;10.096;2023-03-25T03:48:41;54498.00;;;-144.73;91.29
73551;BME280;61816;53.582;10.096;2023-03-25T03:51:09;54502.13;;;-144.73;91.12
73551;BME280;61816;53.582;10.096;2023-03-25T03:53:41;54473.38;;;-144.73;91.22
73551;BME280;61816;53.582;10.096;2023-03-25T03:56:08;54518.53;;;-144.73;91.04
73551;BME280;61816;53.582;10.096;2023-03-25T03:58:36;54520.59;;;-144.73;91.20
73551;BME280;61816;53.582;10.096;2023-03-25T04:01:04;54473.38;;;-144.73;91.53
73551;BME280;61816;53.582;10.096;2023-03-25T04:03:36;54539.06;;;-144.73;91.17
73551;BME280;61816;53.582;10.096;2023-03-25T04:06:10;54506.22;;;-144.73;90.95
73551;BME280;61816;53.582;10.096;2023-03-25T04:08:38;54518.53;;;-144.73;91.12
73551;BME280;61816;53.582;10.096;2023-03-25T04:11:09;54469.28;;;-144.73;91.54
73551;BME280;61816;53.582;10.096;2023-03-25T04:13:35;54522.63;;;-144.73;91.07
73551;BME280;61816;53.582;10.096;2023-03-25T04:16:02;54514.44;;;-144.73;91.51
73551;BME280;61816;53.582;10.096;2023-03-25T04:18:27;54506.22;;;-144.73;91.79
73551;BME280;61816;53.582;10.096;2023-03-25T04:20:53;54461.06;;;-144.73;91.73
73551;BME280;61816;53.582;10.096;2023-03-25T04:23:19;54543.16;;;-144.73;91.10
73551;BME280;61816;53.582;10.096;2023-03-25T04:25:45;54473.38;;;-144.73;91.25
73551;BME280;61816;53.582;10.096;2023-03-25T04:28:19;54547.28;;;-144.73;91.21
73551;BME280;61816;53.582;10.096;2023-03-25T04:30:45;54477.47;;;-144.73;90.85
73551;BME280;61816;53.582;10.096;2023-03-25T04:33:12;54498.00;;;-144.73;91.07
73551;BME280;61816;53.582;10.096;2023-03-25T04:35:38;54489.81;;;-144.73;91.28
73551;BME280;61816;53.582;10.096;2023-03-25T04:38:04;54520.59;;;-144.73;91.30
73551;BME280;61816;53.582;10.096;2023-03-25T04:40:30;54498.00;;;-144.73;91.09
73551;BME280;61816;53.582;10.096;2023-03-25T04:42:55;54506.22;;;-144.73;91.23
73551;BME280;61816;53.582;10.096;2023-03-25T04:45:22;54502.13;;;-144.73;91.27
73551;BME280;61816;53.582;10.096;2023-03-25T04:47:49;54481.59;;;-144.73;92.53
73551;BME280;61816;53.582;10.096;2023-03-25T04:50:28;54526.75;;;-144.73;94.86
73551;BME280;61816;53.582;10.096;2023-03-25T04:52:53;54551.38;;;-144.73;96.76
73551;BME280;61816;53.582;10.096;2023-03-25T04:55:21;54514.44;;;-144.73;98.29
73551;BME280;61816;53.582;10.096;2023-03-25T04:57:47;54489.81;;;-144.73;99.06
73551;BME280;61816;53.582;10.096;2023-03-25T05:00:13;54526.75;;;-144.73;100.00
73551;BME280;61816;53.582;10.096;2023-03-25T05:02:46;54522.63;;;-144.73;100.00
73551;BME280;61816;53.582;10.096;2023-03-25T05:05:15;54547.28;;;-144.73;100.00
73551;BME280;61816;53.582;10.096;2023-03-25T05:07:42;54485.69;;;-144.73;100.00
73551;BME280;61816;53.582;10.096;2023-03-25T05:10:09;54456.97;;;-144.73;100.00
73551;BME280;61816;53.582;10.096;2023-03-25T05:12:35;54506.22;;;-144.73;100.00
73551;BME280;61816;53.582;10.096;2023-03-25T05:15:00;54539.06;;;-144.73;100.00
73551;BME280;61816;53.582;10.096;2023-03-25T05:17:25;54539.06;;;-144.73;100.00
73551;BME280;61816;53.582;10.096;2023-03-25T05:19:51;54498.00;;;-144.73;100.00
73551;BME280;61816;53.582;10.096;2023-03-25T05:22:17;54510.31;;;-144.73;100.00
73551;BME280;61816;53.582;10.096;2023-03-25T05:24:42;54498.00;;;-144.73;100.00
73551;BME280;61816;53.582;10.096;2023-03-25T05:27:09;54518.53;;;-144.73;100.00
73551;BME280;61816;53.582;10.096;2023-03-25T05:29:34;54489.81;;;-144.73;100.00
73551;BME280;61816;53.582;10.096;2023-03-25T05:31:59;54518.53;;;-144.73;100.00
73551;BME280;61816;53.582;10.096;2023-03-25T05:34:25;54506.22;;;-144.73;100.00
73551;BME280;61816;53.582;10.096;2023-03-25T05:36:54;54477.47;;;-144.73;100.00
73551;BME280;61816;53.582;10.096;2023-03-25T05:39:19;54504.16;;;-144.73;100.00
73551;BME280;61816;53.582;10.096;2023-03-25T05:41:44;54539.06;;;-144.73;100.00
73551;BME280;61816;53.582;10.096;2023-03-25T05:44:10;54489.81;;;-144.73;100.00
73551;BME280;61816;53.582;10.096;2023-03-25T05:46:38;54461.06;;;-144.73;100.00
73551;BME280;61816;53.582;10.096;2023-03-25T05:49:04;54530.84;;;-144.73;100.00
73551;BME280;61816;53.582;10.096;2023-03-25T05:51:31;54498.00;;;-144.73;100.00
73551;BME280;61816;53.582;10.096;2023-03-25T05:53:58;54510.31;;;-144.73;100.00
73551;BME280;61816;53.582;10.096;2023-03-25T05:56:23;54512.38;;;-144.73;100.00
73551;BME280;61816;53.582;10.096;2023-03-25T05:58:50;54506.22;;;-144.73;100.00
73551;BME280;61816;53.582;10.096;2023-03-25T06:01:16;54543.16;;;-144.73;100.00
73551;BME280;61816;53.582;10.096;2023-03-25T06:03:43;54530.84;;;-144.73;100.00
73551;BME280;61816;53.582;10.096;2023-03-25T06:06:09;54543.16;;;-144.73;100.00
73551;BME280;61816;53.582;10.096;2023-03-25T06:08:56;54506.22;;;-144.73;100.00
73551;BME280;61816;53.582;10.096;2023-03-25T06:11:25;54541.13;;;-144.73;100.00
73551;BME280;61816;53.582;10.096;2023-03-25T06:13:50;54506.22;;;-144.73;99.55
73551;BME280;61816;53.582;10.096;2023-03-25T06:16:16;54526.75;;;-144.73;100.00
73551;BME280;61816;53.582;10.096;2023-03-25T06:18:46;54506.22;;;-144.73;99.89
73551;BME280;61816;53.582;10.096;2023-03-25T06:21:15;54493.91;;;-144.73;99.85
73551;BME280;61816;53.582;10.096;2023-03-25T06:23:41;54547.28;;;-144.73;99.64
73551;BME280;61816;53.582;10.096;2023-03-25T06:26:06;54539.06;;;-144.73;99.87
73551;BME280;61816;53.582;10.096;2023-03-25T06:28:33;54514.44;;;-144.73;100.00
73551;BME280;61816;53.582;10.096;2023-03-25T06:30:58;54500.06;;;-144.73;100.00
73551;BME280;61816;53.582;10.096;2023-03-25T06:33:23;54514.44;;;-144.73;99.63
73551;BME280;61816;53.582;10.096;2023-03-25T06:35:48;54498.00;;;-144.73;99.81
73551;BME280;61816;53.582;10.096;2023-03-25T06:38:18;54498.00;;;-144.73;100.00
73551;BME280;61816;53.582;10.096;2023-03-25T06:40:43;54526.75;;;-144.73;100.00
73551;BME280;61816;53.582;10.096;2023-03-25T06:43:09;54539.06;;;-144.73;100.00
73551;BME280;61816;53.582;10.096;2023-03-25T06:45:34;54518.53;;;-144.73;100.00
73551;BME280;61816;53.582;10.096;2023-03-25T06:47:59;54510.31;;;-144.73;100.00
73551;BME280;61816;53.582;10.096;2023-03-25T06:50:25;54522.63;;;-144.73;100.00
73551;BME280;61816;53.582;10.096;2023-03-25T06:52:50;54543.16;;;-144.73;100.00
73551;BME280;61816;53.582;10.096;2023-03-25T06:55:15;54504.16;;;-144.73;100.00
73551;BME280;61816;53.582;10.096;2023-03-25T06:57:41;54526.75;;;-144.73;100.00
73551;BME280;61816;53.582;10.096;2023-03-25T07:00:07;54493.91;;;-144.73;100.00
73551;BME280;61816;53.582;10.096;2023-03-25T07:02:33;54489.81;;;-144.73;100.00
73551;BME280;61816;53.582;10.096;2023-03-25T07:04:58;54518.53;;;-144.73;100.00
73551;BME280;61816;53.582;10.096;2023-03-25T07:07:24;54512.38;;;-144.73;100.00
73551;BME280;61816;53.582;10.096;2023-03-25T07:09:50;54491.84;;;-144.73;100.00
73551;BME280;61816;53.582;10.096;2023-03-25T07:12:15;54506.22;;;-144.73;100.00
73551;BME280;61816;53.582;10.096;2023-03-25T07:14:40;54539.06;;;-144.73;100.00
73551;BME280;61816;53.582;10.096;2023-03-25T07:17:06;54477.47;;;-144.73;100.00
73551;BME280;61816;53.582;10.096;2023-03-25T07:19:32;54506.22;;;-144.73;100.00
73551;BME280;61816;53.582;10.096;2023-03-25T07:21:57;54518.53;;;-144.73;100.00
73551;BME280;61816;53.582;10.096;2023-03-25T07:24:23;54491.84;;;-144.73;100.00
73551;BME280;61816;53.582;10.096;2023-03-25T07:26:48;54491.84;;;-144.73;100.00
73551;BME280;61816;53.582;10.096;2023-03-25T07:29:13;54539.06;;;-144.73;100.00
73551;BME280;61816;53.582;10.096;2023-03-25T07:31:38;54514.44;;;-144.73;100.00
73551;BME280;61816;53.582;10.096;2023-03-25T07:34:05;54493.91;;;-144.73;100.00
73551;BME280;61816;53.582;10.096;2023-03-25T07:36:32;54524.69;;;-144.73;100.00
73551;BME280;61816;53.582;10.096;2023-03-25T07:38:57;54461.06;;;-144.73;100.00
73551;BME280;61816;53.582;10.096;2023-03-25T07:41:25;54539.06;;;-144.73;100.00
73551;BME280;61816;53.582;10.096;2023-03-25T07:43:51;54489.81;;;-144.73;100.00
73551;BME280;61816;53.582;10.096;2023-03-25T07:46:16;54485.69;;;-144.73;100.00
73551;BME280;61816;53.582;10.096;2023-03-25T07:48:41;54485.69;;;-144.73;99.75
73551;BME280;61816;53.582;10.096;2023-03-25T07:51:06;54514.44;;;-144.73;99.06
73551;BME280;61816;53.582;10.096;2023-03-25T07:53:33;54539.06;;;-144.73;98.99
73551;BME280;61816;53.582;10.096;2023-03-25T07:55:58;54512.38;;;-144.73;97.95
73551;BME280;61816;53.582;10.096;2023-03-25T07:58:23;54506.22;;;-144.73;97.12
73551;BME280;61816;53.582;10.096;2023-03-25T08:00:48;54539.06;;;-144.73;97.13
73551;BME280;61816;53.582;10.096;2023-03-25T08:03:14;54518.53;;;-144.73;96.77
73551;BME280;61816;53.582;10.096;2023-03-25T08:05:46;54522.63;;;-144.73;95.46
73551;BME280;61816;53.582;10.096;2023-03-25T08:08:12;54514.44;;;-144.73;95.76
73551;BME280;61816;53.582;10.096;2023-03-25T08:10:39;54514.44;;;-144.73;95.37
73551;BME280;61816;53.582;10.096;2023-03-25T08:13:06;54604.75;;;-144.73;96.42
73551;BME280;61816;53.582;10.096;2023-03-25T08:15:32;54477.47;;;-144.73;95.03
73551;BME280;61816;53.582;10.096;2023-03-25T08:17:57;54502.13;;;-144.73;95.16
73551;BME280;61816;53.582;10.096;2023-03-25T08:20:22;54481.59;;;-144.73;93.72
73551;BME280;61816;53.582;10.096;2023-03-25T08:22:48;54477.47;;;-144.73;93.49
73551;BME280;61816;53.582;10.096;2023-03-25T08:25:14;54506.22;;;-144.73;94.15
73551;BME280;61816;53.582;10.096;2023-03-25T08:27:40;54502.13;;;-144.73;94.58
73551;BME280;61816;53.582;10.096;2023-03-25T08:30:05;54510.31;;;-144.73;94.07
73551;BME280;61816;53.582;10.096;2023-03-25T08:32:34;54485.69;;;-144.73;93.89
73551;BME280;61816;53.582;10.096;2023-03-25T08:35:03;54481.59;;;-144.73;91.89
73551;BME280;61816;53.582;10.096;2023-03-25T08:37:29;54524.69;;;-144.73;92.59
73551;BME280;61816;53.582;10.096;2023-03-25T08:40:00;54481.59;;;-144.73;92.11
73551;BME280;61816;53.582;10.096;2023-03-25T08:42:25;54506.22;;;-144.73;92.05
73551;BME280;61816;53.582;10.096;2023-03-25T08:44:50;54530.84;;;-144.73;91.74
73551;BME280;61816;53.582;10.096;2023-03-25T08:47:16;54551.38;;;-144.73;91.23
73551;BME280;61816;53.582;10.096;2023-03-25T08:49:41;54510.31;;;-144.73;91.45
73551;BME280;61816;53.582;10.096;2023-03-25T08:52:07;54514.44;;;-144.73;92.39
73551;BME280;61816;53.582;10.096;2023-03-25T08:54:33;54510.31;;;-144.73;92.61
73551;BME280;61816;53.582;10.096;2023-03-25T08:56:58;54526.75;;;-144.73;92.50
73551;BME280;61816;53.582;10.096;2023-03-25T08:59:23;54514.44;;;-144.73;93.32
73551;BME280;61816;53.582;10.096;2023-03-25T09:01:49;54465.16;;;-144.73;94.42
73551;BME280;61816;53.582;10.096;2023-03-25T09:04:14;54510.31;;;-144.73;95.41
73551;BME280;61816;53.582;10.096;2023-03-25T09:06:40;54502.13;;;-144.73;97.46
73551;BME280;61816;53.582;10.096;2023-03-25T09:09:05;54498.00;;;-144.73;97.95
73551;BME280;61816;53.582;10.096;2023-03-25T09:11:31;54514.44;;;-144.73;95.79
73551;BME280;61816;53.582;10.096;2023-03-25T09:13:56;54543.16;;;-144.73;94.73
73551;BME280;61816;53.582;10.096;2023-03-25T09:16:22;54493.91;;;-144.73;96.66
73551;BME280;61816;53.582;10.096;2023-03-25T09:18:47;54508.28;;;-144.73;95.71
73551;BME280;61816;53.582;10.096;2023-03-25T09:21:12;54506.22;;;-144.73;97.45
73551;BME280;61816;53.582;10.096;2023-03-25T09:23:38;54500.06;;;-144.73;96.91
73551;BME280;61816;53.582;10.096;2023-03-25T09:26:03;54512.38;;;-144.73;97.64
73551;BME280;61816;53.582;10.096;2023-03-25T09:28:29;54514.44;;;-144.73;98.21
73551;BME280;61816;53.582;10.096;2023-03-25T09:30:54;54475.44;;;-144.73;98.43
73551;BME280;61816;53.582;10.096;2023-03-25T09:33:20;54530.84;;;-144.73;98.76
73551;BME280;61816;53.582;10.096;2023-03-25T09:35:46;54506.22;;;-144.73;99.19
73551;BME280;61816;53.582;10.096;2023-03-25T09:38:11;54604.75;;;-144.73;98.54
73551;BME280;61816;53.582;10.096;2023-03-25T09:40:39;54489.81;;;-144.73;99.35
73551;BME280;61816;53.582;10.096;2023-03-25T09:45:45;54510.31;;;-144.73;97.26
73551;BME280;61816;53.582;10.096;2023-03-25T09:50:40;54518.53;;;-144.73;98.42
73551;BME280;61816;53.582;10.096;2023-03-25T09:55:45;54514.44;;;-144.73;97.10
73551;BME280;61816;53.582;10.096;2023-03-25T10:00:42;54498.00;;;-144.73;96.66
73551;BME280;61816;53.582;10.096;2023-03-25T10:03:13;54539.06;;;-144.73;96.51
73551;BME280;61816;53.582;10.096;2023-03-25T10:05:52;54498.00;;;-144.73;96.70
73551;BME280;61816;53.582;10.096;2023-03-25T10:11:19;54487.75;;;-144.73;95.50
73551;BME280;61816;53.582;10.096;2023-03-25T10:16:23;54522.63;;;-144.73;94.59
73551;BME280;61816;53.582;10.096;2023-03-25T10:26:46;54512.38;;;-144.73;93.34
73551;BME280;61816;53.582;10.096;2023-03-25T10:29:20;54524.69;;;-144.73;93.17
73551;BME280;61816;53.582;10.096;2023-03-25T10:31:50;54481.59;;;-144.73;92.38
73551;BME280;61816;53.582;10.096;2023-03-25T10:34:17;54502.13;;;-144.73;91.67
73551;BME280;61816;53.582;10.096;2023-03-25T10:36:48;54514.44;;;-144.73;91.91
73551;BME280;61816;53.582;10.096;2023-03-25T10:39:18;54452.84;;;-144.73;89.21
73551;BME280;61816;53.582;10.096;2023-03-25T10:41:46;54500.06;;;-144.73;89.93
73551;BME280;61816;53.582;10.096;2023-03-25T10:44:14;54473.38;;;-144.73;90.12
73551;BME280;61816;53.582;10.096;2023-03-25T10:46:43;54506.22;;;-144.73;91.14
73551;BME280;61816;53.582;10.096;2023-03-25T10:49:17;54522.63;;;-144.73;89.49
73551;BME280;61816;53.582;10.096;2023-03-25T10:51:43;54530.84;;;-144.73;90.21
73551;BME280;61816;53.582;10.096;2023-03-25T10:54:09;54522.63;;;-144.73;88.38
73551;BME280;61816;53.582;10.096;2023-03-25T10:56:46;54510.31;;;-144.73;88.24
73551;BME280;61816;53.582;10.096;2023-03-25T10:59:32;54493.91;;;-144.73;87.06
73551;BME280;61816;53.582;10.096;2023-03-25T11:02:00;54502.13;;;-144.73;86.69
73551;BME280;61816;53.582;10.096;2023-03-25T11:04:35;54479.53;;;-144.73;86.71
73551;BME280;61816;53.582;10.096;2023-03-25T11:07:02;54522.63;;;-144.73;86.15
73551;BME280;61816;53.582;10.096;2023-03-25T11:09:32;54495.97;;;-144.73;86.14
73551;BME280;61816;53.582;10.096;2023-03-25T11:12:01;54526.75;;;-144.73;86.41
73551;BME280;61816;53.582;10.096;2023-03-25T11:14:28;54498.00;;;-144.73;85.31
73551;BME280;61816;53.582;10.096;2023-03-25T11:17:00;54498.00;;;-144.73;88.14
73551;BME280;61816;53.582;10.096;2023-03-25T11:21:56;54539.06;;;-144.73;90.10
73551;BME280;61816;53.582;10.096;2023-03-25T11:24:22;54514.44;;;-144.73;89.50
73551;BME280;61816;53.582;10.096;2023-03-25T11:26:52;54477.47;;;-144.73;89.34
73551;BME280;61816;53.582;10.096;2023-03-25T11:29:18;54522.63;;;-144.73;88.34
73551;BME280;61816;53.582;10.096;2023-03-25T11:31:53;54526.75;;;-144.73;88.27
73551;BME280;61816;53.582;10.096;2023-03-25T11:34:20;54510.31;;;-144.73;90.24
73551;BME280;61816;53.582;10.096;2023-03-25T11:39:38;54510.31;;;-144.73;93.32
73551;BME280;61816;53.582;10.096;2023-03-25T11:42:10;54508.28;;;-144.73;93.98
73551;BME280;61816;53.582;10.096;2023-03-25T11:44:37;54485.69;;;-144.73;94.23
73551;BME280;61816;53.582;10.096;2023-03-25T11:47:04;54493.91;;;-144.73;95.47
73551;BME280;61816;53.582;10.096;2023-03-25T11:49:32;54489.81;;;-144.73;93.11
73551;BME280;61816;53.582;10.096;2023-03-25T11:52:02;54485.69;;;-144.73;91.86
73551;BME280;61816;53.582;10.096;2023-03-25T11:54:29;54518.53;;;-144.73;93.54
73551;BME280;61816;53.582;10.096;2023-03-25T11:56:56;54506.22;;;-144.73;91.93
73551;BME280;61816;53.582;10.096;2023-03-25T12:01:47;54512.38;;;-144.73;91.30
73551;BME280;61816;53.582;10.096;2023-03-25T12:04:17;54512.38;;;-144.73;91.52
73551;BME280;61816;53.582;10.096;2023-03-25T12:06:51;54514.44;;;-144.73;90.45
73551;BME280;61816;53.582;10.096;2023-03-25T12:09:16;54448.75;;;-144.73;90.00
73551;BME280;61816;53.582;10.096;2023-03-25T12:11:44;54489.81;;;-144.73;88.87
73551;BME280;61816;53.582;10.096;2023-03-25T12:22:27;54516.47;;;-144.73;89.73
73551;BME280;61816;53.582;10.096;2023-03-25T12:32:41;54481.59;;;-144.73;89.89
73551;BME280;61816;53.582;10.096;2023-03-25T12:43:09;54485.69;;;-144.73;87.78
73551;BME280;61816;53.582;10.096;2023-03-25T12:48:30;54522.63;;;-144.73;87.17
73551;BME280;61816;53.582;10.096;2023-03-25T12:51:17;54512.38;;;-144.73;89.19
73551;BME280;61816;53.582;10.096;2023-03-25T13:05:00;54547.28;;;-144.73;91.23
73551;BME280;61816;53.582;10.096;2023-03-25T13:09:43;54465.16;;;-144.73;90.99
73551;BME280;61816;53.582;10.096;2023-03-25T13:12:37;54498.00;;;-144.73;90.78
73551;BME280;61816;53.582;10.096;2023-03-25T13:20:50;54510.31;;;-144.73;89.95
73551;BME280;61816;53.582;10.096;2023-03-25T13:23:23;54514.44;;;-144.73;90.70
73551;BME280;61816;53.582;10.096;2023-03-25T13:26:10;54498.00;;;-144.73;93.19
73551;BME280;61816;53.582;10.096;2023-03-25T13:28:46;54520.59;;;-144.73;95.87
73551;BME280;61816;53.582;10.096;2023-03-25T13:31:17;54539.06;;;-144.73;97.37
73551;BME280;61816;53.582;10.096;2023-03-25T13:33:50;54489.81;;;-144.73;99.55
73551;BME280;61816;53.582;10.096;2023-03-25T13:36:30;54510.31;;;-144.73;99.52
73551;BME280;61816;53.582;10.096;2023-03-25T13:39:06;54489.81;;;-144.73;100.00
73551;BME280;61816;53.582;10.096;2023-03-25T13:42:16;54485.69;;;-144.73;100.00
73551;BME280;61816;53.582;10.096;2023-03-25T13:44:38;54493.91;;;-144.73;100.00
73551;BME280;61816;53.582;10.096;2023-03-25T13:47:24;54502.13;;;-144.73;100.00
73551;BME280;61816;53.582;10.096;2023-03-25T13:49:56;54506.22;;;-144.73;100.00
73551;BME280;61816;53.582;10.096;2023-03-25T13:52:28;54498.00;;;-144.73;100.00
73551;BME280;61816;53.582;10.096;2023-03-25T13:55:14;54461.06;;;-144.73;99.84
73551;BME280;61816;53.582;10.096;2023-03-25T13:58:05;54502.13;;;-144.73;100.00
73551;BME280;61816;53.582;10.096;2023-03-25T14:03:45;54514.44;;;-144.73;99.44
73551;BME280;61816;53.582;10.096;2023-03-25T14:06:18;54518.53;;;-144.73;99.14
73551;BME280;61816;53.582;10.096;2023-03-25T14:11:54;54530.84;;;-144.73;99.48
73551;BME280;61816;53.582;10.096;2023-03-25T14:14:24;54539.06;;;-144.73;99.03
73551;BME280;61816;53.582;10.096;2023-03-25T14:16:53;54604.75;;;-144.73;99.40
73551;BME280;61816;53.582;10.096;2023-03-25T14:19:35;54539.06;;;-144.73;97.15
73551;BME280;61816;53.582;10.096;2023-03-25T14:22:15;54498.00;;;-144.73;98.53
73551;BME280;61816;53.582;10.096;2023-03-25T14:24:43;54502.13;;;-144.73;98.92
73551;BME280;61816;53.582;10.096;2023-03-25T14:27:25;54498.00;;;-144.73;98.58